createdAt,value
2018-06-02T00:00:36.218Z,100670.97
2018-06-02T00:03:03.703Z,100665.88
2018-06-02T00:05:31.097Z,100666.44
2018-06-02T00:07:58.610Z,100673.82
2018-06-02T00:10:26.022Z,100682.52
2018-06-02T00:12:53.434Z,100675.30
2018-06-02T00:15:20.837Z,100680.70
2018-06-02T00:17:48.317Z,100681.41
2018-06-02T00:20:15.773Z,100679.59
2018-06-02T00:22:43.254Z,100686.92
2018-06-02T00:25:10.649Z,100687.00
2018-06-02T00:27:38.073Z,100685.69
2018-06-02T00:30:05.483Z,100684.25
2018-06-02T00:32:32.893Z,100689.80
2018-06-02T00:35:00.686Z,100691.81
2018-06-02T00:37:28.088Z,100689.34
2018-06-02T00:39:55.484Z,100688.48
2018-06-02T00:42:22.920Z,100699.83
2018-06-02T00:44:50.382Z,100696.94
2018-06-02T00:47:17.798Z,100701.45
2018-06-02T00:49:45.214Z,100692.39
2018-06-02T00:52:12.605Z,100699.86
2018-06-02T00:54:51.850Z,100699.80
2018-06-02T00:57:19.255Z,100700.80
2018-06-02T00:59:46.761Z,100698.02
2018-06-02T01:02:14.170Z,100696.38
2018-06-02T01:04:41.565Z,100693.36
2018-06-02T01:07:09.054Z,100696.23
2018-06-02T01:09:36.499Z,100691.72
2018-06-02T01:12:03.893Z,100692.47
2018-06-02T01:14:31.293Z,100690.38
2018-06-02T01:16:58.706Z,100701.87
2018-06-02T01:19:26.110Z,100695.84
2018-06-02T01:21:53.564Z,100701.24
2018-06-02T01:24:21.024Z,100702.88
2018-06-02T01:26:48.544Z,100697.60
2018-06-02T01:29:16.045Z,100699.88
2018-06-02T01:31:43.498Z,100700.62
2018-06-02T01:34:10.919Z,100703.36
2018-06-02T01:36:38.313Z,100706.17
2018-06-02T01:39:05.760Z,100709.95
2018-06-02T01:41:33.213Z,100711.80
2018-06-02T01:44:00.613Z,100705.24
2018-06-02T01:46:28.055Z,100704.28
2018-06-02T01:48:55.448Z,100708.20
2018-06-02T01:51:22.866Z,100701.78
2018-06-02T01:53:50.278Z,100703.84
2018-06-02T01:56:18.679Z,100710.38
2018-06-02T01:58:46.085Z,100708.80
2018-06-02T02:01:14.102Z,100709.39
2018-06-02T02:03:41.518Z,100709.33
2018-06-02T02:06:08.929Z,100702.16
2018-06-02T02:08:36.354Z,100700.94
2018-06-02T02:11:03.830Z,100704.86
2018-06-02T02:13:31.247Z,100713.92
2018-06-02T02:15:58.725Z,100705.87
2018-06-02T02:18:26.418Z,100712.34
2018-06-02T02:20:53.985Z,100713.61
2018-06-02T02:23:21.397Z,100718.58
2018-06-02T02:25:48.796Z,100712.70
2018-06-02T02:28:16.204Z,100711.89
2018-06-02T02:30:43.607Z,100712.31
2018-06-02T02:33:11.064Z,100718.37
2018-06-02T02:35:38.466Z,100716.64
2018-06-02T02:38:05.958Z,100712.88
2018-06-02T02:40:33.509Z,100716.82
2018-06-02T02:43:00.909Z,100721.97
2018-06-02T02:45:28.338Z,100717.75
2018-06-02T02:47:55.743Z,100721.61
2018-06-02T02:50:23.144Z,100727.56
2018-06-02T02:52:50.604Z,100729.32
2018-06-02T02:55:18.024Z,100727.45
2018-06-02T02:57:45.518Z,100736.81
2018-06-02T03:00:12.917Z,100735.30
2018-06-02T03:02:40.328Z,100735.05
2018-06-02T03:05:07.737Z,100736.31
2018-06-02T03:07:35.152Z,100740.10
2018-06-02T03:10:02.596Z,100740.52
2018-06-02T03:12:30.007Z,100747.77
2018-06-02T03:14:57.406Z,100741.47
2018-06-02T03:17:24.881Z,100741.98
2018-06-02T03:19:52.355Z,100745.50
2018-06-02T03:22:19.744Z,100740.37
2018-06-02T03:24:47.144Z,100737.98
2018-06-02T03:27:14.584Z,100731.36
2018-06-02T03:29:41.981Z,100750.22
2018-06-02T03:32:09.401Z,100744.76
2018-06-02T03:34:36.857Z,100750.44
2018-06-02T03:37:04.256Z,100748.16
2018-06-02T03:39:32.625Z,100745.94
2018-06-02T03:42:00.049Z,100746.54
2018-06-02T03:44:27.525Z,100749.13
2018-06-02T03:46:54.973Z,100754.18
2018-06-02T03:49:22.418Z,100762.14
2018-06-02T03:51:49.828Z,100757.97
2018-06-02T03:54:17.226Z,100759.44
2018-06-02T03:56:44.654Z,100754.19
2018-06-02T03:59:12.067Z,100761.27
2018-06-02T04:01:39.477Z,100766.97
2018-06-02T04:04:06.964Z,100758.04
2018-06-02T04:06:34.357Z,100765.95
2018-06-02T04:09:01.794Z,100759.59
2018-06-02T04:11:29.192Z,100761.49
2018-06-02T04:13:56.601Z,100763.36
2018-06-02T04:16:24.038Z,100765.74
2018-06-02T04:18:51.496Z,100766.97
2018-06-02T04:21:18.911Z,100765.98
2018-06-02T04:23:46.409Z,100770.42
2018-06-02T04:26:13.861Z,100780.48
2018-06-02T04:28:41.319Z,100779.09
2018-06-02T04:31:08.720Z,100777.94
2018-06-02T04:33:36.155Z,100779.81
2018-06-02T04:36:03.628Z,100776.41
2018-06-02T04:38:31.030Z,100778.56
2018-06-02T04:40:58.451Z,100775.23
2018-06-02T04:43:26.450Z,100773.94
2018-06-02T04:45:53.869Z,100776.98
2018-06-02T04:48:21.460Z,100782.08
2018-06-02T04:50:48.846Z,100785.24
2018-06-02T04:53:16.282Z,100779.80
2018-06-02T04:55:43.689Z,100785.66
2018-06-02T04:58:11.113Z,100785.70
2018-06-02T05:00:38.509Z,100786.30
2018-06-02T05:03:05.917Z,100788.47
2018-06-02T05:08:00.022Z,100793.91
2018-06-02T05:10:27.418Z,100791.67
2018-06-02T05:12:54.826Z,100792.16
2018-06-02T05:15:22.228Z,100793.88
2018-06-02T05:17:49.646Z,100787.11
2018-06-02T05:20:17.040Z,100795.32
2018-06-02T05:22:44.485Z,100791.17
2018-06-02T05:25:11.869Z,100792.70
2018-06-02T05:30:00.461Z,100789.26
2018-06-02T05:32:27.855Z,100796.22
2018-06-02T05:34:55.257Z,100787.15
2018-06-02T05:37:22.662Z,100788.55
2018-06-02T05:39:50.184Z,100799.87
2018-06-02T05:42:17.625Z,100794.88
2018-06-02T05:44:45.051Z,100792.38
2018-06-02T05:47:12.536Z,100794.48
2018-06-02T05:49:39.929Z,100796.85
2018-06-02T05:52:07.358Z,100803.30
2018-06-02T05:54:34.874Z,100806.61
2018-06-02T05:57:02.261Z,100808.95
2018-06-02T05:59:29.666Z,100809.09
2018-06-02T06:01:57.125Z,100815.88
2018-06-02T06:04:24.533Z,100811.42
2018-06-02T06:06:52.009Z,100812.63
2018-06-02T06:09:19.440Z,100814.29
2018-06-02T06:11:46.850Z,100812.56
2018-06-02T06:14:14.318Z,100812.92
2018-06-02T06:16:41.725Z,100809.72
2018-06-02T06:19:09.169Z,100812.52
2018-06-02T06:21:36.577Z,100811.84
2018-06-02T06:24:03.994Z,100814.61
2018-06-02T06:26:31.441Z,100818.45
2018-06-02T06:28:58.849Z,100824.47
2018-06-02T06:31:26.381Z,100828.12
2018-06-02T06:33:53.785Z,100835.62
2018-06-02T06:36:21.189Z,100833.78
2018-06-02T06:38:48.625Z,100837.00
2018-06-02T06:41:16.049Z,100836.34
2018-06-02T06:43:43.459Z,100839.44
2018-06-02T06:46:10.910Z,100844.88
2018-06-02T06:48:38.350Z,100839.39
2018-06-02T06:51:05.744Z,100841.53
2018-06-02T06:53:33.265Z,100841.20
2018-06-02T06:56:00.661Z,100848.00
2018-06-02T06:58:28.198Z,100843.26
2018-06-02T07:00:55.585Z,100854.27
2018-06-02T07:03:22.981Z,100852.81
2018-06-02T07:05:50.482Z,100852.00
2018-06-02T07:08:17.877Z,100859.99
2018-06-02T07:10:45.281Z,100858.95
2018-06-02T07:13:12.714Z,100863.06
2018-06-02T07:15:40.239Z,100862.59
2018-06-02T07:18:07.640Z,100862.69
2018-06-02T07:20:35.093Z,100864.05
2018-06-02T07:23:02.516Z,100868.05
2018-06-02T07:25:29.929Z,100866.86
2018-06-02T07:27:57.328Z,100866.30
2018-06-02T07:30:24.825Z,100868.53
2018-06-02T07:32:52.221Z,100867.41
2018-06-02T07:35:19.665Z,100874.06
2018-06-02T07:37:47.061Z,100869.77
2018-06-02T07:40:14.544Z,100872.91
2018-06-02T07:42:41.999Z,100877.53
2018-06-02T07:45:09.402Z,100878.85
2018-06-02T07:47:36.844Z,100879.03
2018-06-02T07:50:04.296Z,100881.45
2018-06-02T07:52:31.673Z,100884.46
2018-06-02T07:54:59.093Z,100890.00
2018-06-02T07:57:26.525Z,100889.80
2018-06-02T07:59:53.925Z,100889.75
2018-06-02T08:02:21.337Z,100896.31
2018-06-02T08:04:48.746Z,100895.95
2018-06-02T08:07:16.149Z,100897.58
2018-06-02T08:09:43.586Z,100904.78
2018-06-02T08:12:11.026Z,100902.69
2018-06-02T08:14:38.429Z,100896.70
2018-06-02T08:17:05.896Z,100898.91
2018-06-02T08:19:33.341Z,100903.88
2018-06-02T08:22:00.749Z,100909.11
2018-06-02T08:24:28.158Z,100910.06
2018-06-02T08:26:55.562Z,100901.75
2018-06-02T08:29:22.981Z,100908.39
2018-06-02T08:31:50.377Z,100913.22
2018-06-02T08:34:17.776Z,100914.97
2018-06-02T08:36:45.260Z,100912.95
2018-06-02T08:39:12.673Z,100919.36
2018-06-02T08:41:40.086Z,100921.23
2018-06-02T08:44:07.537Z,100918.11
2018-06-02T08:46:34.989Z,100921.85
2018-06-02T08:49:02.408Z,100926.42
2018-06-02T08:51:29.827Z,100929.69
2018-06-02T08:53:57.333Z,100927.09
2018-06-02T08:56:24.812Z,100932.19
2018-06-02T08:58:52.241Z,100931.83
2018-06-02T09:01:19.705Z,100934.06
2018-06-02T09:03:47.101Z,100937.45
2018-06-02T09:06:15.194Z,100933.50
2018-06-02T09:08:42.623Z,100928.87
2018-06-02T09:11:10.138Z,100925.92
2018-06-02T09:13:37.552Z,100928.19
2018-06-02T09:16:04.970Z,100931.72
2018-06-02T09:18:32.366Z,100928.98
2018-06-02T09:20:59.788Z,100928.41
2018-06-02T09:23:27.190Z,100923.10
2018-06-02T09:25:54.609Z,100931.39
2018-06-02T09:28:22.115Z,100929.67
2018-06-02T09:30:49.572Z,100932.23
2018-06-02T09:33:16.957Z,100929.00
2018-06-02T09:35:44.384Z,100935.39
2018-06-02T09:38:11.788Z,100933.66
2018-06-02T09:40:39.192Z,100933.61
2018-06-02T09:43:06.590Z,100936.23
2018-06-02T09:45:33.997Z,100939.49
2018-06-02T09:48:01.445Z,100936.41
2018-06-02T09:50:28.858Z,100933.09
2018-06-02T09:52:56.267Z,100930.44
2018-06-02T09:55:23.686Z,100936.41
2018-06-02T09:57:51.179Z,100942.48
2018-06-02T10:00:22.540Z,100947.16
2018-06-02T10:02:49.981Z,100952.61
2018-06-02T10:05:17.413Z,100946.84
2018-06-02T10:07:45.114Z,100939.47
2018-06-02T10:10:12.517Z,100938.91
2018-06-02T10:12:40.043Z,100945.16
2018-06-02T10:15:07.473Z,100949.98
2018-06-02T10:17:34.928Z,100951.15
2018-06-02T10:20:02.398Z,100946.96
2018-06-02T10:22:29.849Z,100950.85
2018-06-02T10:24:57.253Z,100949.37
2018-06-02T10:27:24.658Z,100958.47
2018-06-02T10:29:52.109Z,100953.78
2018-06-02T10:32:19.578Z,100955.55
2018-06-02T10:34:46.997Z,100954.65
2018-06-02T10:37:14.391Z,100954.28
2018-06-02T10:39:41.877Z,100946.97
2018-06-02T10:42:09.292Z,100949.89
2018-06-02T10:44:36.718Z,100951.20
2018-06-02T10:47:04.109Z,100953.30
2018-06-02T10:49:31.512Z,100953.13
2018-06-02T10:51:58.929Z,100954.07
2018-06-02T10:54:26.347Z,100955.60
2018-06-02T10:56:53.750Z,100944.59
2018-06-02T10:59:21.151Z,100940.99
2018-06-02T11:01:48.643Z,100947.66
2018-06-02T11:04:16.014Z,100947.66
2018-06-02T11:06:43.448Z,100955.33
2018-06-02T11:09:11.262Z,100957.59
2018-06-02T11:11:38.700Z,100957.10
2018-06-02T11:14:06.215Z,100958.98
2018-06-02T11:16:33.617Z,100964.73
2018-06-02T11:19:01.032Z,100963.00
2018-06-02T11:21:28.535Z,100959.88
2018-06-02T11:23:55.961Z,100952.72
2018-06-02T11:26:23.376Z,100956.20
2018-06-02T11:28:50.806Z,100954.65
2018-06-02T11:31:18.216Z,100956.63
2018-06-02T11:33:45.608Z,100958.53
2018-06-02T11:36:13.078Z,100952.83
2018-06-02T11:38:40.510Z,100955.09
2018-06-02T11:41:08.018Z,100952.17
2018-06-02T11:43:35.558Z,100949.75
2018-06-02T11:46:03.021Z,100954.76
2018-06-02T11:48:30.423Z,100964.39
2018-06-02T11:50:57.825Z,100958.80
2018-06-02T11:53:25.221Z,100961.65
2018-06-02T11:55:52.637Z,100969.86
2018-06-02T11:58:20.064Z,100963.92
2018-06-02T12:00:47.480Z,100960.19
2018-06-02T12:03:14.886Z,100960.48
2018-06-02T12:05:42.353Z,100959.94
2018-06-02T12:08:09.780Z,100959.91
2018-06-02T12:10:37.289Z,100958.80
2018-06-02T12:13:04.687Z,100964.79
2018-06-02T12:15:32.093Z,100957.17
2018-06-02T12:17:59.514Z,100951.27
2018-06-02T12:20:27.025Z,100952.88
2018-06-02T12:22:54.431Z,100951.37
2018-06-02T12:25:21.833Z,100958.13
2018-06-02T12:27:49.228Z,100958.26
2018-06-02T12:30:16.718Z,100955.34
2018-06-02T12:32:44.201Z,100960.89
2018-06-02T12:35:11.601Z,100965.08
2018-06-02T12:37:39.010Z,100968.27
2018-06-02T12:40:06.414Z,100969.00
2018-06-02T12:42:33.958Z,100975.69
2018-06-02T12:45:01.361Z,100977.05
2018-06-02T12:47:28.759Z,100974.90
2018-06-02T12:49:56.190Z,100980.41
2018-06-02T12:52:23.601Z,100981.59
2018-06-02T12:54:50.996Z,100972.33
2018-06-02T12:57:18.472Z,100980.41
2018-06-02T12:59:45.916Z,100976.17
2018-06-02T13:02:13.509Z,100974.59
2018-06-02T13:04:40.901Z,100971.42
2018-06-02T13:07:08.389Z,100965.30
2018-06-02T13:09:35.832Z,100973.78
2018-06-02T13:12:03.433Z,100970.39
2018-06-02T13:14:30.885Z,100981.22
2018-06-02T13:16:58.330Z,100974.08
2018-06-02T13:19:25.778Z,100970.45
2018-06-02T13:21:53.273Z,100978.83
2018-06-02T13:24:20.939Z,100974.54
2018-06-02T13:26:48.337Z,100976.89
2018-06-02T13:29:15.770Z,100971.75
2018-06-02T13:31:43.218Z,100984.45
2018-06-02T13:34:10.613Z,100975.80
2018-06-02T13:36:38.027Z,100977.30
2018-06-02T13:39:05.417Z,100974.61
2018-06-02T13:41:32.830Z,100974.25
2018-06-02T13:44:00.270Z,100980.67
2018-06-02T13:46:27.679Z,100973.59
2018-06-02T13:48:55.073Z,100974.03
2018-06-02T13:51:22.657Z,100974.55
2018-06-02T13:53:50.027Z,100971.94
2018-06-02T13:56:17.432Z,100967.89
2018-06-02T13:58:44.900Z,100978.75
2018-06-02T14:01:12.377Z,100976.19
2018-06-02T14:03:39.777Z,100972.59
2018-06-02T14:06:07.176Z,100969.73
2018-06-02T14:08:34.568Z,100967.88
2018-06-02T14:11:02.023Z,100967.59
2018-06-02T14:13:29.441Z,100969.33
2018-06-02T14:15:56.866Z,100963.36
2018-06-02T14:18:24.367Z,100960.69
2018-06-02T14:20:51.822Z,100958.25
2018-06-02T14:23:19.239Z,100963.81
2018-06-02T14:25:46.702Z,100962.62
2018-06-02T14:28:14.100Z,100963.80
2018-06-02T14:30:41.612Z,100962.89
2018-06-02T14:33:09.011Z,100960.97
2018-06-02T14:35:36.434Z,100958.00
2018-06-02T14:38:03.889Z,100966.16
2018-06-02T14:40:31.330Z,100957.23
2018-06-02T14:42:58.734Z,100959.58
2018-06-02T14:45:26.134Z,100954.67
2018-06-02T14:47:53.550Z,100951.70
2018-06-02T14:50:20.961Z,100956.19
2018-06-02T14:52:48.366Z,100953.50
2018-06-02T14:55:15.839Z,100952.91
2018-06-02T14:57:43.236Z,100950.98
2018-06-02T15:00:10.670Z,100952.31
2018-06-02T15:02:38.093Z,100948.48
2018-06-02T15:05:05.545Z,100950.07
2018-06-02T15:07:32.993Z,100949.41
2018-06-02T15:10:00.506Z,100954.11
2018-06-02T15:12:27.962Z,100954.38
2018-06-02T15:14:55.377Z,100954.08
2018-06-02T15:17:22.837Z,100952.72
2018-06-02T15:19:50.232Z,100951.81
2018-06-02T15:22:17.644Z,100958.20
2018-06-02T15:24:45.054Z,100951.42
2018-06-02T15:27:12.451Z,100950.95
2018-06-02T15:29:39.916Z,100954.12
2018-06-02T15:32:07.426Z,100951.42
2018-06-02T15:34:34.932Z,100954.65
2018-06-02T15:37:02.336Z,100948.58
2018-06-02T15:39:29.882Z,100951.52
2018-06-02T15:41:57.289Z,100953.22
2018-06-02T15:44:24.697Z,100952.55
2018-06-02T15:46:52.112Z,100947.65
2018-06-02T15:49:19.642Z,100946.05
2018-06-02T15:51:47.178Z,100950.72
2018-06-02T15:54:14.593Z,100949.83
2018-06-02T15:56:42.018Z,100951.55
2018-06-02T15:59:09.453Z,100954.98
2018-06-02T16:01:36.861Z,100964.17
2018-06-02T16:04:04.266Z,100965.94
2018-06-02T16:06:31.772Z,100960.80
2018-06-02T16:08:59.172Z,100960.69
2018-06-02T16:11:26.584Z,100953.86
2018-06-02T16:13:53.989Z,100960.08
2018-06-02T16:16:21.425Z,100961.09
2018-06-02T16:18:48.916Z,100964.89
2018-06-02T16:21:16.374Z,100967.44
2018-06-02T16:23:43.837Z,100970.02
2018-06-02T16:26:11.253Z,100966.16
2018-06-02T16:28:38.745Z,100966.23
2018-06-02T16:31:06.162Z,100965.80
2018-06-02T16:33:33.609Z,100966.30
2018-06-02T16:36:01.022Z,100967.12
2018-06-02T16:38:28.477Z,100974.01
2018-06-02T16:40:55.885Z,100970.06
2018-06-02T16:43:23.289Z,100969.33
2018-06-02T16:45:50.681Z,100967.92
2018-06-02T16:48:18.124Z,100963.79
2018-06-02T16:50:45.584Z,100972.30
2018-06-02T16:53:13.031Z,100966.00
2018-06-02T16:55:40.472Z,100969.60
2018-06-02T16:58:07.878Z,100968.17
2018-06-02T17:00:35.276Z,100964.39
2018-06-02T17:03:02.718Z,100969.76
2018-06-02T17:05:30.213Z,100977.08
2018-06-02T17:07:57.649Z,100976.27
2018-06-02T17:10:25.114Z,100977.81
2018-06-02T17:12:52.539Z,100978.25
2018-06-02T17:15:20.039Z,100982.52
2018-06-02T17:17:47.445Z,100981.69
2018-06-02T17:20:14.959Z,100984.98
2018-06-02T17:22:42.361Z,100985.39
2018-06-02T17:25:09.854Z,100982.86
2018-06-02T17:27:37.337Z,100987.53
2018-06-02T17:30:04.769Z,100979.03
2018-06-02T17:32:32.170Z,100984.98
2018-06-02T17:34:59.596Z,100980.16
2018-06-02T17:37:27.012Z,100976.90
2018-06-02T17:39:54.408Z,100981.27
2018-06-02T17:42:21.864Z,100979.34
2018-06-02T17:44:49.262Z,100980.01
2018-06-02T17:47:16.664Z,100977.48
2018-06-02T17:49:44.065Z,100972.27
2018-06-02T17:52:11.533Z,100980.66
2018-06-02T17:54:38.918Z,100983.23
2018-06-02T17:57:06.340Z,100983.02
2018-06-02T17:59:33.725Z,100988.55
2018-06-02T18:02:01.144Z,100989.52
2018-06-02T18:04:28.896Z,100983.21
2018-06-02T18:06:56.320Z,100982.86
2018-06-02T18:09:24.069Z,100987.89
2018-06-02T18:11:51.545Z,100987.06
2018-06-02T18:14:18.999Z,100986.08
2018-06-02T18:16:46.397Z,100992.77
2018-06-02T18:19:13.800Z,100988.88
2018-06-02T18:21:41.198Z,100995.95
2018-06-02T18:24:08.601Z,100994.10
2018-06-02T18:26:36.002Z,100997.23
2018-06-02T18:29:03.415Z,100992.78
2018-06-02T18:31:30.808Z,101006.66
2018-06-02T18:33:58.227Z,100996.08
2018-06-02T18:36:25.640Z,101001.02
2018-06-02T18:38:53.075Z,100998.44
2018-06-02T18:41:20.491Z,100992.84
2018-06-02T18:43:47.890Z,100994.34
2018-06-02T18:46:15.294Z,100993.31
2018-06-02T18:48:42.701Z,100995.92
2018-06-02T18:51:10.139Z,100996.57
2018-06-02T18:53:37.575Z,101002.09
2018-06-02T18:56:05.067Z,101009.47
2018-06-02T18:58:32.485Z,101007.27
2018-06-02T19:01:00.009Z,101004.11
2018-06-02T19:03:27.433Z,101008.37
2018-06-02T19:05:54.832Z,101004.97
2018-06-02T19:08:22.246Z,101007.05
2018-06-02T19:10:49.657Z,101006.20
2018-06-02T19:13:17.060Z,101003.13
2018-06-02T19:15:44.475Z,101000.34
2018-06-02T19:18:11.921Z,101007.70
2018-06-02T19:20:39.318Z,101006.55
2018-06-02T19:23:06.743Z,101005.08
2018-06-02T19:25:34.160Z,101013.74
2018-06-02T19:28:01.614Z,101016.43
2018-06-02T19:30:29.039Z,101019.81
2018-06-02T19:32:56.744Z,101024.39
2018-06-02T19:35:25.080Z,101025.00
2018-06-02T19:37:52.450Z,101032.66
2018-06-02T19:40:19.840Z,101028.95
2018-06-02T19:42:47.352Z,101039.37
2018-06-02T19:45:14.750Z,101030.52
2018-06-02T19:47:42.301Z,101029.23
2018-06-02T19:50:09.682Z,101035.75
2018-06-02T19:52:37.114Z,101029.65
2018-06-02T19:55:04.518Z,101030.66
2018-06-02T19:57:31.951Z,101028.52
2018-06-02T19:59:59.378Z,101034.09
2018-06-02T20:02:26.818Z,101031.55
2018-06-02T20:04:54.290Z,101028.99
2018-06-02T20:07:21.721Z,101031.68
2018-06-02T20:09:49.169Z,101029.18
2018-06-02T20:12:16.643Z,101036.86
2018-06-02T20:14:44.079Z,101033.52
2018-06-02T20:17:11.466Z,101031.65
2018-06-02T20:19:38.861Z,101031.09
2018-06-02T20:22:06.470Z,101037.76
2018-06-02T20:24:33.838Z,101040.25
2018-06-02T20:27:01.279Z,101035.94
2018-06-02T20:29:28.677Z,101047.01
2018-06-02T20:31:56.077Z,101044.69
2018-06-02T20:34:23.537Z,101034.25
2018-06-02T20:36:51.030Z,101040.66
2018-06-02T20:39:18.468Z,101035.56
2018-06-02T20:41:45.873Z,101030.73
2018-06-02T20:44:13.270Z,101033.02
2018-06-02T20:46:40.722Z,101031.81
2018-06-02T20:49:08.173Z,101036.50
2018-06-02T20:51:35.656Z,101040.06
2018-06-02T20:54:03.056Z,101037.75
2018-06-02T20:56:30.452Z,101036.40
2018-06-02T20:58:57.866Z,101035.81
2018-06-02T21:01:25.293Z,101037.95
2018-06-02T21:03:52.717Z,101040.95
2018-06-02T21:06:20.202Z,101036.75
2018-06-02T21:08:47.642Z,101031.78
2018-06-02T21:11:15.109Z,101040.14
2018-06-02T21:13:42.595Z,101030.20
2018-06-02T21:16:10.012Z,101031.97
2018-06-02T21:18:37.434Z,101035.16
2018-06-02T21:21:04.862Z,101033.44
2018-06-02T21:23:32.283Z,101036.14
2018-06-02T21:25:59.740Z,101041.14
2018-06-02T21:28:27.139Z,101046.50
2018-06-02T21:30:54.537Z,101043.20
2018-06-02T21:33:22.009Z,101037.78
2018-06-02T21:35:49.410Z,101044.47
2018-06-02T21:38:16.811Z,101042.11
2018-06-02T21:40:44.206Z,101044.55
2018-06-02T21:43:11.721Z,101046.55
2018-06-02T21:45:39.125Z,101050.91
2018-06-02T21:48:06.635Z,101048.96
2018-06-02T21:50:34.037Z,101051.14
2018-06-02T21:53:01.553Z,101054.98
2018-06-02T21:55:28.980Z,101058.79
2018-06-02T21:57:56.377Z,101056.58
2018-06-02T22:00:23.783Z,101058.83
2018-06-02T22:02:51.189Z,101065.81
2018-06-02T22:05:18.683Z,101068.84
2018-06-02T22:07:46.103Z,101068.81
2018-06-02T22:10:13.503Z,101071.33
2018-06-02T22:12:40.905Z,101071.75
2018-06-02T22:15:08.371Z,101070.47
2018-06-02T22:17:35.824Z,101070.22
2018-06-02T22:20:03.292Z,101072.29
2018-06-02T22:22:30.677Z,101065.45
2018-06-02T22:24:58.086Z,101061.52
2018-06-02T22:27:25.489Z,101062.61
2018-06-02T22:29:52.908Z,101058.39
2018-06-02T22:32:20.365Z,101061.89
2018-06-02T22:34:47.765Z,101065.03
2018-06-02T22:37:15.173Z,101061.17
2018-06-02T22:39:42.642Z,101051.69
2018-06-02T22:42:10.061Z,101056.19
2018-06-02T22:44:37.469Z,101053.22
2018-06-02T22:47:04.869Z,101052.22
2018-06-02T22:49:32.291Z,101058.00
2018-06-02T22:51:59.681Z,101063.63
2018-06-02T22:54:27.107Z,101058.03
2018-06-02T22:56:54.493Z,101062.73
2018-06-02T22:59:21.912Z,101061.91
2018-06-02T23:01:49.337Z,101067.59
2018-06-02T23:04:16.801Z,101060.21
2018-06-02T23:06:44.215Z,101063.80
2018-06-02T23:09:11.622Z,101062.70
2018-06-02T23:11:39.037Z,101060.08
2018-06-02T23:14:06.464Z,101067.83
2018-06-02T23:16:33.864Z,101065.53
2018-06-02T23:19:01.269Z,101064.89
2018-06-02T23:21:28.673Z,101063.93
2018-06-02T23:23:56.184Z,101067.75
2018-06-02T23:26:23.614Z,101068.83
2018-06-02T23:28:51.065Z,101069.39
2018-06-02T23:31:18.490Z,101065.58
2018-06-02T23:33:45.877Z,101065.06
2018-06-02T23:36:13.297Z,101068.57
2018-06-02T23:38:40.790Z,101077.02
2018-06-02T23:41:08.256Z,101074.34
2018-06-02T23:43:35.647Z,101070.45
2018-06-02T23:46:03.153Z,101071.71
2018-06-02T23:48:30.566Z,101076.77
2018-06-02T23:50:58.037Z,101074.11
2018-06-02T23:53:25.438Z,101068.67
2018-06-02T23:55:52.853Z,101069.97
2018-06-02T23:58:20.266Z,101063.85
